Time;durP1;ratioP1;P1;durP2;ratioP2;P2;SDS_P1;SDS_P2;PMS_P1;PMS_P2;Temp;Humidity;BMP_temperature;BMP_pressure;BME280_temperature;BME280_humidity;BME280_pressure;Samples;Min_cycle;Max_cycle;Signal;HPM_P1;HPM_P2
2021/03/09 00:00:35;;;;;;;9.65;4.05;;;;;;;-9.84;56.19;99306.94;5053973;28;20084;-54
2021/03/09 00:03:02;;;;;;;9.18;4.20;;;;;;;-9.95;56.02;99298.38;5053393;28;20041;-55
2021/03/09 00:05:27;;;;;;;10.68;4.18;;;;;;;-9.96;55.91;99283.72;5053238;28;20106;-52
2021/03/09 00:07:53;;;;;;;8.40;3.92;;;;;;;-9.86;56.34;99310.41;5053159;28;20036;-51
2021/03/09 00:10:18;;;;;;;6.97;3.60;;;;;;;-10.02;56.23;99291.50;5071171;28;20048;-49
2021/03/09 00:12:44;;;;;;;6.40;3.47;;;;;;;-10.39;56.38;99218.34;5070075;28;20036;-50
2021/03/09 00:15:10;;;;;;;8.23;4.15;;;;;;;-9.93;56.41;99312.19;5072205;28;20032;-55
2021/03/09 00:17:35;;;;;;;9.55;3.40;;;;;;;-10.03;56.64;99297.53;5073254;28;20067;-52
2021/03/09 00:20:03;;;;;;;8.23;3.90;;;;;;;-10.04;56.81;99314.81;5072862;28;20048;-49
2021/03/09 00:22:28;;;;;;;7.75;3.85;;;;;;;-10.00;56.63;99306.16;5072992;28;20024;-52
2021/03/09 00:24:54;;;;;;;7.35;3.67;;;;;;;-10.13;56.35;99288.97;5071036;28;20071;-54
2021/03/09 00:27:30;;;;;;;6.50;3.75;;;;;;;-10.13;56.58;99283.78;5072540;28;20032;-51
2021/03/09 00:29:56;;;;;;;7.78;3.72;;;;;;;-10.08;56.27;99295.00;5072511;28;20028;-58
2021/03/09 00:32:21;;;;;;;8.10;3.88;;;;;;;-10.54;56.68;99221.03;5072815;28;20044;-54
2021/03/09 00:34:47;;;;;;;10.63;4.18;;;;;;;-10.06;56.46;99307.91;5072219;28;20037;-55
2021/03/09 00:37:12;;;;;;;9.05;4.32;;;;;;;-10.08;56.67;99315.72;5071455;28;20045;-57
2021/03/09 00:39:38;;;;;;;9.80;3.95;;;;;;;-10.11;56.73;99314.00;5070557;28;20123;-57
2021/03/09 00:42:03;;;;;;;8.23;4.45;;;;;;;-10.17;56.46;99290.72;5059689;28;20083;-51
2021/03/09 00:44:29;;;;;;;11.07;4.00;;;;;;;-10.18;56.69;99296.78;5057006;28;20480;-51
2021/03/09 00:46:54;;;;;;;8.35;4.07;;;;;;;-10.18;56.86;99316.59;5060350;28;20051;-51
2021/03/09 00:49:20;;;;;;;10.50;4.28;;;;;;;-10.21;56.55;99308.84;5070484;28;20094;-52
2021/03/09 00:51:45;;;;;;;10.95;4.53;;;;;;;-10.30;56.85;99308.03;5067833;28;20039;-52
2021/03/09 00:54:11;;;;;;;6.80;3.90;;;;;;;-10.27;56.58;99318.38;5071148;28;20036;-52
2021/03/09 00:56:37;;;;;;;10.68;3.85;;;;;;;-10.30;56.75;99315.81;5057443;28;20040;-56
2021/03/09 00:59:02;;;;;;;8.68;4.03;;;;;;;-10.42;56.67;99319.34;5056455;28;20068;-54
2021/03/09 01:01:28;;;;;;;10.85;4.55;;;;;;;-10.31;56.60;99321.84;5066696;28;20143;-56
2021/03/09 01:03:53;;;;;;;12.10;4.55;;;;;;;-10.37;56.71;99324.44;5072137;28;20040;-53
2021/03/09 01:06:18;;;;;;;9.85;4.70;;;;;;;-10.35;56.42;99332.22;5054191;28;20105;-56
2021/03/09 01:08:44;;;;;;;11.75;4.32;;;;;;;-10.48;56.76;99303.84;5052477;28;20512;-54
2021/03/09 01:11:09;;;;;;;8.32;4.20;;;;;;;-10.42;56.27;99337.44;5052100;28;20033;-57
2021/03/09 01:13:35;;;;;;;6.53;3.92;;;;;;;-10.47;56.47;99325.38;5052687;28;20083;-58
2021/03/09 01:16:00;;;;;;;8.52;4.38;;;;;;;-10.51;56.81;99321.94;5051957;28;20041;-56
2021/03/09 01:18:26;;;;;;;7.43;4.20;;;;;;;-10.49;56.59;99334.88;5052000;28;20032;-52
2021/03/09 01:20:52;;;;;;;8.57;4.38;;;;;;;-10.51;56.87;99334.03;5051632;28;20052;-52
2021/03/09 01:23:17;;;;;;;11.23;4.60;;;;;;;-11.06;56.81;99256.56;5051934;28;20036;-51
2021/03/09 01:25:44;;;;;;;11.27;4.75;;;;;;;-10.57;56.71;99337.47;5051902;28;20037;-56
2021/03/09 01:28:10;;;;;;;7.90;3.95;;;;;;;-11.00;56.64;99284.13;5052440;28;20028;-52
2021/03/09 01:30:36;;;;;;;9.07;4.65;;;;;;;-10.61;56.46;99341.81;5051791;28;20481;-51
2021/03/09 01:33:02;;;;;;;15.20;5.45;;;;;;;-11.78;56.94;99156.75;5051642;28;20446;-54
2021/03/09 01:35:28;;;;;;;9.43;4.70;;;;;;;-10.64;56.87;99346.97;5051725;28;20119;-52
2021/03/09 01:37:53;;;;;;;11.05;4.63;;;;;;;-10.66;56.72;99343.53;5051246;28;20028;-58
2021/03/09 01:40:19;;;;;;;11.35;4.95;;;;;;;-10.72;56.85;99340.97;5052644;28;20040;-52
2021/03/09 01:42:45;;;;;;;13.77;5.32;;;;;;;-10.74;56.92;99355.63;5051780;28;20061;-54
2021/03/09 01:45:11;;;;;;;9.50;4.85;;;;;;;-10.82;56.66;99342.72;5058917;28;20129;-57
2021/03/09 01:47:42;;;;;;;12.23;4.78;;;;;;;-10.79;57.20;99352.19;5066061;28;20044;-56
2021/03/09 01:50:09;;;;;;;10.70;4.45;;;;;;;-10.83;57.05;99351.31;5051436;28;20453;-54
2021/03/09 01:52:35;;;;;;;14.73;4.90;;;;;;;-11.15;56.69;99305.69;5054209;28;20561;-54
2021/03/09 01:55:01;;;;;;;9.75;4.95;;;;;;;-10.84;57.10;99370.28;5059840;28;20037;-51
2021/03/09 01:57:27;;;;;;;10.18;4.45;;;;;;;-10.90;56.85;99363.41;5064009;28;20028;-54
2021/03/09 01:59:53;;;;;;;9.38;4.22;;;;;;;-11.13;56.96;99328.06;5070181;28;20396;-57
2021/03/09 02:02:19;;;;;;;8.70;4.25;;;;;;;-10.92;57.00;99370.28;5057916;28;20068;-54
2021/03/09 02:04:44;;;;;;;9.10;4.55;;;;;;;-11.05;57.14;99343.59;5050713;28;20053;-55
2021/03/09 02:07:10;;;;;;;7.63;4.15;;;;;;;-10.92;56.83;99366.88;5050676;28;20037;-52
2021/03/09 02:09:36;;;;;;;8.88;4.88;;;;;;;-10.95;57.10;99385.81;5051164;28;20040;-55
2021/03/09 02:12:16;;;;;;;9.77;4.47;;;;;;;-10.98;57.17;99375.47;5050984;28;20496;-57
2021/03/09 02:15:02;;;;;;;9.07;4.35;;;;;;;-11.00;57.09;99384.97;5050871;28;20514;-50
2021/03/09 02:17:37;;;;;;;8.73;4.05;;;;;;;-11.02;56.97;99381.53;5051247;28;20068;-53
2021/03/09 02:20:08;;;;;;;8.23;4.30;;;;;;;-11.02;56.84;99391.88;5050770;28;20386;-50
2021/03/09 02:23:01;;;;;;;8.60;3.83;;;;;;;-11.04;56.91;99393.59;5050782;28;20043;-54
2021/03/09 02:25:54;;;;;;;7.45;3.45;;;;;;;-11.09;56.84;99398.75;5050601;28;20119;-54
2021/03/09 02:28:39;;;;;;;10.18;4.18;;;;;;;-11.11;57.39;99397.88;5052042;28;20056;-57
2021/03/09 02:31:06;;;;;;;10.15;4.07;;;;;;;-11.42;56.81;99369.44;5050546;28;20048;-55
2021/03/09 02:33:54;;;;;;;7.50;3.80;;;;;;;-11.18;56.88;99404.75;5050550;28;20089;-54
2021/03/09 02:36:23;;;;;;;9.10;3.90;;;;;;;-11.22;56.90;99408.22;5050801;28;20036;-52
2021/03/09 02:39:05;;;;;;;7.18;3.92;;;;;;;-11.21;57.14;99402.19;5050501;28;20112;-52
2021/03/09 02:41:38;;;;;;;10.10;3.88;;;;;;;-11.28;57.01;99397.88;5059114;28;20151;-54
2021/03/09 02:44:04;;;;;;;10.93;4.43;;;;;;;-11.43;57.02;99389.22;5062448;28;20033;-53
2021/03/09 02:46:34;;;;;;;7.97;4.30;;;;;;;-11.33;57.17;99409.91;5058204;28;20036;-52
2021/03/09 02:49:00;;;;;;;10.15;4.10;;;;;;;-11.36;57.46;99422.81;5069149;28;20435;-54
2021/03/09 02:51:29;;;;;;;9.93;3.85;;;;;;;-11.37;57.26;99411.66;5057905;28;20044;-55
2021/03/09 02:53:58;;;;;;;10.20;4.68;;;;;;;-11.49;57.63;99409.91;5064107;28;20074;-52
2021/03/09 02:56:24;;;;;;;7.57;4.00;;;;;;;-11.45;57.31;99419.38;5050951;28;20386;-51
2021/03/09 02:58:57;;;;;;;8.73;4.32;;;;;;;-11.47;57.91;99443.47;5050128;28;20044;-53
2021/03/09 03:01:29;;;;;;;8.25;3.55;;;;;;;-11.49;57.79;99427.09;5053085;28;20092;-54
2021/03/09 03:03:56;;;;;;;9.23;4.15;;;;;;;-11.55;57.99;99433.13;5068946;28;20055;-56
2021/03/09 03:06:22;;;;;;;8.40;4.50;;;;;;;-11.57;57.74;99430.53;5064745;28;20057;-53
2021/03/09 03:08:48;;;;;;;6.47;4.15;;;;;;;-11.57;57.86;99434.84;5049670;28;20037;-56
2021/03/09 03:11:15;;;;;;;8.93;4.18;;;;;;;-11.61;57.63;99425.34;5049723;28;20029;-55
2021/03/09 03:13:42;;;;;;;8.27;4.43;;;;;;;-11.74;57.99;99411.53;5050356;28;20029;-52
2021/03/09 03:16:11;;;;;;;9.48;4.25;;;;;;;-11.64;58.14;99428.81;5049837;28;20033;-56
2021/03/09 03:18:40;;;;;;;7.65;4.07;;;;;;;-11.63;58.25;99432.22;5050567;28;20040;-52
2021/03/09 03:21:10;;;;;;;8.88;4.25;;;;;;;-11.70;58.09;99434.81;5053077;28;20108;-51
2021/03/09 03:23:37;;;;;;;7.10;3.78;;;;;;;-11.62;57.82;99449.47;5066294;28;20032;-55
2021/03/09 03:26:05;;;;;;;8.95;4.07;;;;;;;-11.65;58.31;99450.31;5050189;28;20048;-55
2021/03/09 03:28:33;;;;;;;8.10;4.50;;;;;;;-11.63;57.88;99450.31;5051221;28;20052;-55
2021/03/09 03:31:00;;;;;;;9.95;4.35;;;;;;;-11.62;57.72;99462.38;5064995;28;20037;-51
2021/03/09 03:33:28;;;;;;;10.57;4.38;;;;;;;-11.63;57.99;99460.66;5049773;28;20044;-51
2021/03/09 03:35:54;;;;;;;9.25;3.72;;;;;;;-11.74;58.05;99432.19;5050225;28;20472;-56
2021/03/09 03:38:19;;;;;;;9.85;4.45;;;;;;;-11.86;57.73;99417.53;5050095;28;20053;-50
2021/03/09 03:40:45;;;;;;;10.52;4.40;;;;;;;-11.64;57.93;99452.06;5048376;28;20222;-51
2021/03/09 03:43:11;;;;;;;11.27;5.00;;;;;;;-11.75;58.10;99438.22;5050595;28;20118;-52
2021/03/09 03:45:36;;;;;;;11.38;5.10;;;;;;;-11.64;58.37;99474.41;5051221;28;20083;-54
2021/03/09 03:48:02;;;;;;;10.73;4.82;;;;;;;-11.72;58.36;99444.28;5067196;28;20047;-54
2021/03/09 03:50:31;;;;;;;9.48;4.63;;;;;;;-11.62;57.74;99458.09;5060532;28;20037;-53
2021/03/09 03:53:21;;;;;;;8.35;4.05;;;;;;;-11.62;58.30;99454.63;5062729;28;20037;-54
2021/03/09 03:55:57;;;;;;;9.80;4.65;;;;;;;-11.60;57.82;99463.25;5067936;28;20038;-53
2021/03/09 03:58:44;;;;;;;12.48;4.53;;;;;;;-11.62;57.79;99459.78;5058554;28;20140;-53
2021/03/09 04:01:12;;;;;;;9.13;4.45;;;;;;;-11.64;57.45;99464.09;5064120;28;20056;-54
2021/03/09 04:03:39;;;;;;;10.57;4.57;;;;;;;-11.76;57.76;99447.69;5069311;28;20055;-55
2021/03/09 04:06:05;;;;;;;13.82;4.80;;;;;;;-11.68;57.93;99464.06;5067045;28;20127;-56
2021/03/09 04:08:36;;;;;;;9.32;4.72;;;;;;;-11.70;57.90;99463.22;5058999;28;20065;-51
2021/03/09 04:11:03;;;;;;;9.70;4.72;;;;;;;-12.07;57.78;99406.28;5067652;28;20041;-54
2021/03/09 04:13:30;;;;;;;12.63;5.22;;;;;;;-11.77;57.90;99458.88;5073072;28;20036;-54
2021/03/09 04:15:57;;;;;;;11.00;5.68;;;;;;;-11.69;58.20;99470.09;5073463;28;20041;-55
2021/03/09 04:18:25;;;;;;;9.43;5.00;;;;;;;-11.77;57.94;99451.16;5073402;28;20028;-58
2021/03/09 04:20:52;;;;;;;11.98;5.50;;;;;;;-11.73;58.27;99447.72;5068501;28;20037;-54
2021/03/09 04:23:19;;;;;;;10.23;4.80;;;;;;;-11.53;57.58;99467.59;5053499;28;20459;-53
2021/03/09 04:25:47;;;;;;;9.77;4.68;;;;;;;-11.37;57.45;99478.84;5071035;28;20044;-55
2021/03/09 04:28:15;;;;;;;12.57;4.30;;;;;;;-11.25;57.09;99486.59;5054776;28;20037;-54
2021/03/09 04:30:41;;;;;;;9.93;4.75;;;;;;;-11.08;56.64;99478.03;5058239;28;20396;-57
2021/03/09 04:33:09;;;;;;;11.25;5.47;;;;;;;-10.89;56.50;99488.41;5069733;28;20028;-50
2021/03/09 04:35:35;;;;;;;9.23;4.40;;;;;;;-10.62;55.51;99486.69;5059578;28;20032;-57
2021/03/09 04:38:01;;;;;;;11.07;5.53;;;;;;;-10.54;54.96;99459.97;5052716;28;20025;-57
2021/03/09 04:40:27;;;;;;;12.82;5.05;;;;;;;-10.34;54.15;99437.47;5052608;28;20040;-59
2021/03/09 04:42:53;;;;;;;10.15;4.90;;;;;;;-9.87;53.67;99484.84;5052575;28;20107;-56
2021/03/09 04:45:19;;;;;;;8.85;4.53;;;;;;;-9.70;53.05;99470.09;5054682;28;20095;-50
2021/03/09 04:47:45;;;;;;;11.02;4.88;;;;;;;-9.56;52.24;99474.38;5053573;28;20056;-54
2021/03/09 04:50:14;;;;;;;13.57;5.20;;;;;;;-9.41;51.83;99487.22;5052263;28;20388;-51
2021/03/09 04:52:41;;;;;;;9.45;4.78;;;;;;;-9.35;51.57;99490.69;5057821;28;20036;-55
2021/03/09 04:55:08;;;;;;;10.95;4.43;;;;;;;-9.82;51.06;99413.16;5067334;28;20025;-56
2021/03/09 04:57:41;;;;;;;8.93;4.32;;;;;;;-9.25;50.85;99498.41;5062096;28;20032;-54
2021/03/09 05:00:12;;;;;;;10.25;4.95;;;;;;;-9.33;50.85;99494.97;5053862;28;20048;-55
2021/03/09 05:02:38;;;;;;;8.68;4.82;;;;;;;-8.55;50.13;99513.53;5052054;28;20044;-57
2021/03/09 05:05:04;;;;;;;10.38;5.25;;;;;;;-7.38;47.67;99505.41;5052192;28;20366;-56
2021/03/09 05:07:30;;;;;;;12.02;5.50;;;;;;;-6.64;45.94;99523.50;5052292;28;20067;-56
2021/03/09 05:09:55;;;;;;;12.15;5.35;;;;;;;-6.10;44.67;99520.03;5052197;28;20036;-51
2021/03/09 05:12:21;;;;;;;11.05;5.63;;;;;;;-5.77;43.94;99522.03;5052771;28;20094;-53
2021/03/09 05:14:46;;;;;;;10.15;5.07;;;;;;;-4.89;43.24;99516.75;5051973;28;20119;-53
2021/03/09 05:17:12;;;;;;;11.23;5.10;;;;;;;-4.63;41.46;99536.22;5051861;28;20115;-55
2021/03/09 05:19:37;;;;;;;14.32;5.65;;;;;;;-4.80;41.43;99500.91;5051559;28;20404;-55
2021/03/09 05:22:03;;;;;;;11.30;5.80;;;;;;;-3.92;40.85;99517.97;5051850;28;20048;-53
2021/03/09 05:24:28;;;;;;;10.25;4.80;;;;;;;-2.50;38.50;99502.50;5053132;28;20040;-55
2021/03/09 05:26:54;;;;;;;10.57;5.40;;;;;;;-0.53;35.30;99525.34;5051124;28;20041;-56
2021/03/09 05:29:20;;;;;;;12.98;4.97;;;;;;;0.66;34.64;99527.41;5051348;28;20515;-57
2021/03/09 05:31:46;;;;;;;7.53;4.97;;;;;;;2.15;32.06;99531.81;5051230;28;20032;-52
2021/03/09 05:34:11;;;;;;;10.05;5.20;;;;;;;3.58;30.85;99526.06;5051576;28;20033;-55
2021/03/09 05:36:36;;;;;;;13.30;5.75;;;;;;;4.69;29.05;99529.31;5052551;28;20571;-55
2021/03/09 05:39:03;;;;;;;13.32;6.38;;;;;;;5.37;27.56;99526.91;5052271;28;20353;-51
2021/03/09 05:41:28;;;;;;;10.07;5.53;;;;;;;5.74;26.62;99537.81;5058103;28;20051;-53
2021/03/09 05:43:54;;;;;;;11.63;5.70;;;;;;;6.37;26.39;99523.97;5059072;28;20028;-58
2021/03/09 05:46:20;;;;;;;10.88;6.22;;;;;;;7.38;25.14;99546.28;5047738;28;20037;-53
2021/03/09 05:48:45;;;;;;;11.82;6.18;;;;;;;8.33;24.12;99531.34;5050279;28;20048;-57
2021/03/09 05:51:11;;;;;;;10.35;5.90;;;;;;;8.69;23.64;99520.69;5059805;28;20095;-55
2021/03/09 05:53:36;;;;;;;10.23;5.88;;;;;;;9.17;23.16;99519.63;5057959;28;20032;-55
2021/03/09 05:56:05;;;;;;;9.15;5.43;;;;;;;9.62;21.95;99538.22;5050473;28;20124;-55
2021/03/09 05:58:31;;;;;;;11.10;5.80;;;;;;;10.17;22.04;99541.81;5048846;28;20280;-56
2021/03/09 06:00:57;;;;;;;9.68;6.15;;;;;;;10.63;21.50;99535.28;5052911;28;20552;-56
2021/03/09 06:03:26;;;;;;;10.75;6.40;;;;;;;11.10;19.34;99547.38;5054564;28;20059;-54
2021/03/09 06:05:52;;;;;;;12.65;6.93;;;;;;;11.28;19.26;99552.09;5062027;28;20032;-53
2021/03/09 06:08:18;;;;;;;14.90;7.05;;;;;;;11.76;18.93;99550.53;5067754;28;20131;-51
2021/03/09 06:10:44;;;;;;;11.88;7.10;;;;;;;11.77;18.50;99557.59;5053160;28;20108;-56
2021/03/09 06:13:33;;;;;;;10.57;6.47;;;;;;;12.40;16.01;99559.09;5057290;28;20507;-57
2021/03/09 06:15:58;;;;;;;9.90;6.25;;;;;;;12.82;17.29;99557.06;5053671;28;20159;-57
2021/03/09 06:18:24;;;;;;;11.57;6.80;;;;;;;12.32;16.42;99567.03;5058654;28;20044;-56
2021/03/09 06:21:07;;;;;;;9.73;6.40;;;;;;;12.05;16.96;99571.22;5052698;28;20400;-57
2021/03/09 06:23:32;;;;;;;10.35;6.40;;;;;;;12.57;16.55;99562.06;5050909;28;20079;-59
2021/03/09 06:25:58;;;;;;;8.13;6.00;;;;;;;13.14;16.17;99566.56;5056478;28;20028;-57
2021/03/09 06:28:31;;;;;;;10.15;6.30;;;;;;;13.89;15.29;99569.19;5068892;28;20120;-52
2021/03/09 06:30:59;;;;;;;11.60;6.60;;;;;;;14.31;15.16;99548.88;5060157;28;20028;-55
2021/03/09 06:33:31;;;;;;;9.80;7.28;;;;;;;15.13;14.38;99573.94;5058832;28;20036;-54
2021/03/09 06:36:00;;;;;;;12.43;7.25;;;;;;;15.99;14.52;99564.00;5060153;28;20358;-59
2021/03/09 06:38:30;;;;;;;9.68;6.75;;;;;;;16.77;13.04;99572.66;5053146;28;20045;-57
2021/03/09 06:41:07;;;;;;;11.88;7.20;;;;;;;17.58;13.23;99573.66;5057364;28;20033;-56
2021/03/09 06:43:34;;;;;;;10.07;6.65;;;;;;;17.64;13.27;99576.53;5057828;28;20059;-58
2021/03/09 06:46:29;;;;;;;9.88;6.90;;;;;;;18.58;13.60;99590.19;5057444;28;20135;-57
2021/03/09 06:49:01;;;;;;;10.20;6.78;;;;;;;18.26;11.65;99570.41;5056665;28;20036;-54
2021/03/09 06:51:30;;;;;;;13.57;6.75;;;;;;;17.15;11.62;99592.94;5054862;28;20033;-60
2021/03/09 06:54:10;;;;;;;9.00;6.18;;;;;;;16.87;12.14;99598.66;5058227;28;20222;-54
2021/03/09 06:56:38;;;;;;;10.68;6.57;;;;;;;16.43;12.26;99576.41;5059383;28;20110;-57
2021/03/09 06:59:24;;;;;;;8.93;6.22;;;;;;;16.91;11.36;99581.09;5057897;28;20040;-56
2021/03/09 07:02:15;;;;;;;;;;;;;;;18.05;11.77;99586.31;5056683;28;20192;-56
2021/03/09 07:04:49;;;;;;;9.68;6.03;;;;;;;16.43;11.22;99584.50;5054312;28;20659;-58
2021/03/09 07:07:22;;;;;;;9.02;6.40;;;;;;;16.58;11.23;99591.91;5057492;28;20041;-55
2021/03/09 07:10:02;;;;;;;9.88;6.90;;;;;;;16.27;10.98;99589.88;5056571;28;20040;-54
2021/03/09 07:12:29;;;;;;;9.95;6.47;;;;;;;15.68;11.08;99593.44;5058690;28;20033;-57
2021/03/09 07:14:56;;;;;;;10.13;6.70;;;;;;;16.18;11.06;99597.13;5056188;28;20503;-56
2021/03/09 07:17:27;;;;;;;10.32;6.75;;;;;;;17.07;10.55;99596.47;5058159;28;20045;-57
2021/03/09 07:19:53;;;;;;;10.52;6.75;;;;;;;17.05;10.41;99596.63;5060022;28;20470;-57
2021/03/09 07:22:21;;;;;;;10.60;7.07;;;;;;;17.67;10.69;99596.13;5056836;28;20123;-60
2021/03/09 07:25:11;;;;;;;9.40;6.40;;;;;;;18.93;9.78;99604.97;5056189;28;20071;-59
2021/03/09 07:27:39;;;;;;;11.38;7.20;;;;;;;19.56;9.22;99605.66;5056238;28;20044;-60
2021/03/09 07:30:07;;;;;;;10.07;6.78;;;;;;;19.94;9.48;99597.41;5053713;28;20051;-61
2021/03/09 07:32:36;;;;;;;9.02;6.72;;;;;;;20.28;8.75;99595.91;5057415;28;20040;-61
2021/03/09 07:35:02;;;;;;;12.13;7.10;;;;;;;19.80;9.71;99615.41;5059461;28;20040;-59
2021/03/09 07:37:39;;;;;;;10.18;6.93;;;;;;;19.10;9.39;99614.84;5027923;28;20765;-56
2021/03/09 07:40:10;;;;;;;11.00;7.65;;;;;;;16.57;10.72;99609.16;5033741;28;20587;-61
2021/03/09 07:42:37;;;;;;;10.35;7.30;;;;;;;16.40;10.69;99608.31;5055251;28;20044;-59
2021/03/09 07:45:08;;;;;;;10.43;7.65;;;;;;;16.68;10.41;99608.81;5057305;28;20044;-59
2021/03/09 07:47:35;;;;;;;11.68;7.50;;;;;;;15.68;10.45;99615.03;5065906;28;20085;-56
2021/03/09 07:50:05;;;;;;;12.07;7.55;;;;;;;14.37;11.02;99622.00;5061721;28;20063;-52
2021/03/09 07:52:31;;;;;;;12.70;7.97;;;;;;;14.29;11.00;99617.38;5060629;28;20045;-55
2021/03/09 07:55:02;;;;;;;12.90;8.07;;;;;;;14.71;10.65;99632.97;5060188;28;20098;-58
2021/03/09 07:57:29;;;;;;;11.85;7.35;;;;;;;14.44;10.69;99626.59;5060056;28;20095;-56
2021/03/09 07:59:59;;;;;;;12.25;7.53;;;;;;;12.86;11.28;99633.69;5054482;28;20028;-55
2021/03/09 08:02:39;;;;;;;11.63;7.63;;;;;;;10.44;12.44;99635.03;5059368;28;20079;-58
2021/03/09 08:05:10;;;;;;;13.43;7.70;;;;;;;7.90;14.47;99623.41;5065897;28;20124;-57
2021/03/09 08:07:53;;;;;;;13.93;8.40;;;;;;;6.05;16.64;99648.41;5056302;28;20135;-57
2021/03/09 08:10:39;;;;;;;13.80;8.27;;;;;;;4.53;17.52;99654.03;5071028;28;20775;-59
2021/03/09 08:13:07;;;;;;;22.27;9.93;;;;;;;2.93;18.99;99665.34;5059753;28;20117;-63
2021/03/09 08:15:34;;;;;;;16.35;8.05;;;;;;;1.49;19.99;99673.13;5077197;28;20064;-59
2021/03/09 08:18:20;;;;;;;10.05;5.90;;;;;;;0.53;21.57;99650.91;5088317;28;20496;-58
2021/03/09 08:20:56;;;;;;;15.70;6.90;;;;;;;-0.48;22.16;99668.91;5059016;28;20041;-53
2021/03/09 08:23:31;;;;;;;11.50;5.70;;;;;;;-1.31;23.75;99676.19;5083958;28;20105;-55
2021/03/09 08:25:58;;;;;;;11.02;5.78;;;;;;;-1.69;23.86;99670.44;5060234;28;20505;-54
2021/03/09 08:28:38;;;;;;;12.90;5.85;;;;;;;-1.97;25.26;99680.97;5072175;28;20143;-59
2021/03/09 08:31:09;;;;;;;12.90;6.68;;;;;;;-2.18;25.06;99673.69;5058107;28;20040;-57
2021/03/09 08:33:54;;;;;;;15.20;6.43;;;;;;;-2.30;26.25;99668.84;5063101;28;20131;-59
2021/03/09 08:36:20;;;;;;;12.90;6.55;;;;;;;-2.26;24.87;99677.50;5085037;28;20139;-54
2021/03/09 08:39:08;;;;;;;13.93;6.40;;;;;;;-2.31;25.52;99682.88;5079931;28;20477;-56
2021/03/09 08:41:40;;;;;;;13.05;6.18;;;;;;;-2.56;25.43;99678.34;5066679;28;20071;-60
2021/03/09 08:47:05;;;;;;;17.03;7.03;;;;;;;-2.76;26.03;99695.50;5070342;28;20476;-63
2021/03/09 08:49:34;;;;;;;15.65;7.22;;;;;;;-2.96;25.84;99695.16;5067190;28;20282;-60
2021/03/09 08:52:08;;;;;;;12.20;6.22;;;;;;;-3.01;26.19;99687.47;5062195;28;20418;-60
2021/03/09 08:54:37;;;;;;;14.90;7.15;;;;;;;-3.05;26.21;99702.38;5073780;28;20032;-62
2021/03/09 08:57:20;;;;;;;12.85;6.43;;;;;;;-3.39;27.21;99697.16;5077714;28;20028;-60
2021/03/09 08:59:51;;;;;;;16.00;6.82;;;;;;;-3.67;27.23;99713.56;5087804;28;20048;-59
2021/03/09 09:02:17;;;;;;;16.52;6.78;;;;;;;-3.68;27.12;99701.38;5058536;28;20044;-58
2021/03/09 09:04:52;;;;;;;14.30;7.32;;;;;;;-3.69;28.38;99703.09;5071583;28;20042;-60
2021/03/09 09:07:40;;;;;;;13.27;6.80;;;;;;;-3.50;27.47;99715.75;5080067;28;20040;-58
2021/03/09 09:10:10;;;;;;;18.77;6.90;;;;;;;-3.19;26.77;99704.50;5060605;28;20049;-61
2021/03/09 09:12:41;;;;;;;14.55;6.80;;;;;;;-3.17;26.89;99706.19;5061057;28;20047;-61
2021/03/09 09:15:12;;;;;;;15.27;6.95;;;;;;;-4.59;27.09;99495.19;5063271;28;20138;-59
2021/03/09 09:17:40;;;;;;;15.63;6.70;;;;;;;-3.67;27.45;99713.56;5064508;28;20037;-58
2021/03/09 09:20:13;;;;;;;15.90;6.85;;;;;;;-4.66;27.92;99648.63;5076205;28;20040;-59
2021/03/09 09:22:39;;;;;;;15.07;6.05;;;;;;;-4.34;28.25;99712.41;5078971;28;20036;-59
2021/03/09 09:25:07;;;;;;;14.13;6.30;;;;;;;-4.49;28.25;99708.34;5072285;28;20066;-61
2021/03/09 09:27:54;;;;;;;14.60;5.95;;;;;;;-4.29;28.64;99720.16;5088092;28;20499;-59
2021/03/09 09:30:40;;;;;;;14.98;6.32;;;;;;;-4.03;28.61;99716.97;5066655;28;20044;-59
2021/03/09 09:33:10;;;;;;;14.40;6.85;;;;;;;-3.79;28.19;99727.78;5066655;28;20058;-61
2021/03/09 09:35:37;;;;;;;15.65;6.68;;;;;;;-3.65;27.78;99696.91;5057183;28;20505;-61
2021/03/09 09:38:08;;;;;;;16.25;7.10;;;;;;;-3.60;28.04;99720.34;5087102;28;20408;-60
2021/03/09 09:40:36;;;;;;;14.90;6.45;;;;;;;-3.81;28.35;99732.19;5079499;28;20036;-61
2021/03/09 09:43:05;;;;;;;16.20;6.47;;;;;;;-4.02;28.86;99703.00;5070755;28;20024;-58
2021/03/09 09:45:32;;;;;;;15.73;6.80;;;;;;;-3.99;28.77;99717.75;5072020;28;20407;-58
2021/03/09 09:47:59;;;;;;;16.17;7.28;;;;;;;-4.06;28.58;99696.13;5056432;28;20028;-61
2021/03/09 09:50:25;;;;;;;14.07;7.03;;;;;;;-3.99;28.97;99722.97;5059491;28;20037;-60
2021/03/09 09:52:56;;;;;;;15.43;6.65;;;;;;;-4.04;28.86;99739.63;5067131;28;20043;-62
2021/03/09 09:55:23;;;;;;;14.73;6.32;;;;;;;-4.09;29.07;99722.34;5055739;28;20403;-60
2021/03/09 09:57:50;;;;;;;14.45;6.82;;;;;;;-4.41;29.46;99708.19;5063269;28;20386;-63
2021/03/09 10:00:16;;;;;;;16.98;6.55;;;;;;;-4.87;29.58;99629.88;5079495;28;20064;-60
2021/03/09 10:02:42;;;;;;;11.80;5.85;;;;;;;-4.92;29.78;99652.63;5070685;28;20052;-65
2021/03/09 10:05:26;;;;;;;13.85;7.18;;;;;;;-5.29;30.11;99598.53;5056111;28;20048;-62
2021/03/09 10:07:52;;;;;;;14.00;6.45;;;;;;;-4.65;30.23;99724.38;5075369;28;20055;-62
2021/03/09 10:10:18;;;;;;;16.25;6.55;;;;;;;-4.68;30.40;99729.66;5074766;28;20495;-61
2021/03/09 10:12:43;;;;;;;15.75;6.90;;;;;;;-4.88;30.12;99662.09;5086743;28;20207;-61
2021/03/09 10:15:10;;;;;;;13.90;6.00;;;;;;;-4.45;30.25;99715.25;5085123;28;20510;-60
2021/03/09 10:17:36;;;;;;;21.35;8.93;;;;;;;-4.24;29.81;99731.34;5073268;28;20033;-62
2021/03/09 10:20:20;;;;;;;14.02;6.78;;;;;;;-4.14;30.07;99671.88;5086025;28;20075;-63
2021/03/09 10:22:47;;;;;;;16.23;6.28;;;;;;;-3.41;29.61;99727.75;5079893;28;20039;-62
2021/03/09 10:25:15;;;;;;;17.15;7.15;;;;;;;-3.13;29.66;99729.69;5066197;28;20047;-63
2021/03/09 10:27:42;;;;;;;15.07;6.75;;;;;;;-2.85;29.13;99734.19;5083947;28;20032;-61
2021/03/09 10:30:08;;;;;;;15.55;7.47;;;;;;;-2.58;28.81;99726.47;5074659;28;20438;-61
2021/03/09 10:32:52;;;;;;;14.80;7.45;;;;;;;-2.52;28.81;99736.81;5081644;28;20036;-62
2021/03/09 10:35:18;;;;;;;16.55;6.70;;;;;;;-2.84;29.02;99721.06;5084345;28;20039;-62
2021/03/09 10:37:43;;;;;;;17.17;6.65;;;;;;;-2.60;29.24;99742.25;5065829;28;20037;-62
2021/03/09 10:40:12;;;;;;;12.27;6.63;;;;;;;-2.43;29.20;99725.16;5084628;28;20036;-61
2021/03/09 10:42:43;;;;;;;15.88;6.93;;;;;;;-2.29;29.25;99728.25;5077991;28;20955;-62
2021/03/09 10:45:15;;;;;;;14.13;6.60;;;;;;;-2.12;28.63;99726.91;5076119;28;20082;-62
2021/03/09 10:47:51;;;;;;;15.25;7.20;;;;;;;-2.09;28.81;99740.78;5055540;28;20044;-62
2021/03/09 10:50:19;;;;;;;13.88;6.85;;;;;;;-2.42;28.58;99725.13;5064682;28;20035;-64
2021/03/09 10:52:45;;;;;;;14.20;6.35;;;;;;;-3.64;29.24;99635.81;5058649;28;20119;-67
2021/03/09 10:55:11;;;;;;;17.48;6.72;;;;;;;-3.52;29.43;99738.50;5080954;28;20040;-60
2021/03/09 10:57:36;;;;;;;14.63;6.43;;;;;;;-3.70;29.55;99734.56;5071568;28;20060;-63
2021/03/09 11:00:07;;;;;;;14.70;7.22;;;;;;;-3.96;30.30;99713.31;5087938;28;20064;-64
2021/03/09 11:02:33;;;;;;;17.15;6.80;;;;;;;-3.97;30.47;99745.59;5070808;28;20053;-54
2021/03/09 11:04:58;;;;;;;13.43;6.28;;;;;;;-4.47;30.90;99738.81;5057318;28;20041;-61
2021/03/09 11:07:24;;;;;;;12.40;6.85;;;;;;;-4.70;31.37;99721.00;5057198;28;20385;-60
2021/03/09 11:09:49;;;;;;;15.27;7.10;;;;;;;-4.38;30.79;99758.66;5068891;28;20043;-62
2021/03/09 11:12:15;;;;;;;15.35;7.93;;;;;;;-4.15;30.86;99744.25;5062786;28;20570;-62
2021/03/09 11:14:40;;;;;;;13.40;6.43;;;;;;;-3.96;30.41;99739.47;5056200;28;20032;-65
2021/03/09 11:17:06;;;;;;;20.92;7.05;;;;;;;-4.07;30.69;99751.94;5058244;28;20045;-70
2021/03/09 11:19:31;;;;;;;14.90;6.32;;;;;;;-4.42;30.70;99740.47;5059480;28;20041;-53
2021/03/09 11:21:57;;;;;;;15.90;7.10;;;;;;;-4.52;31.12;99758.06;5063500;28;20043;-59
2021/03/09 11:24:22;;;;;;;16.35;6.43;;;;;;;-4.53;30.90;99775.53;5083054;28;20039;-62
2021/03/09 11:26:48;;;;;;;15.27;7.28;;;;;;;-4.59;30.98;99775.59;5082777;28;20504;-60
2021/03/09 11:29:14;;;;;;;15.75;6.57;;;;;;;-4.65;30.84;99789.69;5071671;28;20116;-61
2021/03/09 11:31:39;;;;;;;16.27;6.93;;;;;;;-4.58;30.95;99777.38;5066584;28;20071;-60
2021/03/09 11:34:05;;;;;;;14.82;6.93;;;;;;;-4.37;30.90;99770.84;5088924;28;20275;-62
2021/03/09 11:36:30;;;;;;;15.30;7.20;;;;;;;-4.09;31.01;99765.03;5081100;28;20407;-60
2021/03/09 11:38:56;;;;;;;16.40;7.47;;;;;;;-3.87;30.63;99775.03;5081379;28;20039;-57